Time;durP1;ratioP1;P1;durP2;ratioP2;P2;SDS_P1;SDS_P2;PMS_P1;PMS_P2;Temp;Humidity;BMP_temperature;BMP_pressure;BME280_temperature;BME280_humidity;BME280_pressure;Samples;Min_cycle;Max_cycle;Signal;HPM_P1;HPM_P2
2022/07/08 03:56:37;;;;;;;4.82;0.82;;;18.70;64.10;;;;;;5068534;24;20465;-76
2022/07/08 04:02:07;;;;;;;6.78;1.10;;;18.70;64.40;;;;;;4803041;29;20522;-77
2022/07/08 04:04:32;;;;;;;4.85;0.90;;;18.80;64.50;;;;;;4823545;29;20126;-77
2022/07/08 04:07:03;;;;;;;7.03;1.30;;;18.80;64.50;;;;;;4827087;29;20518;-79
2022/07/08 04:09:29;;;;;;;5.75;1.30;;;18.80;64.60;;;;;;4826815;29;20468;-78
2022/07/08 04:11:55;;;;;;;5.35;1.20;;;18.80;64.70;;;;;;4841156;29;20158;-76
2022/07/08 04:14:21;;;;;;;6.28;0.85;;;18.80;64.80;;;;;;4825163;29;20356;-77
2022/07/08 04:16:46;;;;;;;6.53;1.10;;;18.80;64.90;;;;;;4826193;29;20100;-79
2022/07/08 04:19:12;;;;;;;3.90;1.10;;;18.80;65.30;;;;;;4826290;29;20038;-77
2022/07/08 04:21:38;;;;;;;5.72;0.88;;;18.80;65.30;;;;;;4826880;29;20121;-78
2022/07/08 04:24:03;;;;;;;3.92;0.80;;;18.80;65.40;;;;;;4826284;29;20055;-76
2022/07/08 04:26:31;;;;;;;5.30;0.80;;;18.80;65.50;;;;;;4826784;29;20050;-78
2022/07/08 04:28:58;;;;;;;6.57;1.13;;;18.90;65.80;;;;;;4827381;29;20050;-79
2022/07/08 04:31:25;;;;;;;6.22;1.42;;;18.90;65.80;;;;;;4826997;29;20092;-81
2022/07/08 04:33:53;;;;;;;8.63;1.35;;;18.90;65.90;;;;;;4825710;29;20129;-81
2022/07/08 04:36:22;;;;;;;6.35;1.02;;;18.90;65.90;;;;;;4825709;29;20035;-81
2022/07/08 04:59:16;;;;;;;9.55;1.83;;;19.00;66.40;;;;;;4807772;29;20041;-82
2022/07/08 05:01:42;;;;;;;9.43;1.27;;;19.00;66.70;;;;;;4792286;29;20141;-80
2022/07/08 05:04:08;;;;;;;5.70;1.15;;;19.10;66.90;;;;;;4807076;29;20047;-77
2022/07/08 05:06:33;;;;;;;9.30;1.25;;;19.10;67.00;;;;;;4817077;29;20340;-79
2022/07/08 05:08:59;;;;;;;6.35;1.67;;;19.10;67.00;;;;;;4826554;29;20086;-78
2022/07/08 05:11:25;;;;;;;11.20;1.50;;;19.10;67.10;;;;;;4840640;29;20078;-77
2022/07/08 05:13:51;;;;;;;5.03;1.13;;;19.10;67.20;;;;;;4826116;29;20464;-80
2022/07/08 05:16:16;;;;;;;7.63;1.02;;;19.10;67.30;;;;;;4826132;29;20050;-81
2022/07/08 05:18:42;;;;;;;8.52;1.30;;;19.10;67.60;;;;;;4825278;29;20058;-80
2022/07/08 05:21:08;;;;;;;7.65;1.60;;;19.00;67.90;;;;;;4825255;29;20054;-80
2022/07/08 05:23:33;;;;;;;7.10;1.50;;;19.00;68.30;;;;;;4825124;29;20050;-78
2022/07/08 05:25:59;;;;;;;6.60;1.48;;;18.90;68.40;;;;;;4825914;29;20046;-84
2022/07/08 05:28:25;;;;;;;6.50;1.20;;;18.90;68.70;;;;;;4825788;29;20456;-79
2022/07/08 05:30:50;;;;;;;10.60;1.48;;;18.90;68.90;;;;;;4840337;29;20054;-77
2022/07/08 05:33:16;;;;;;;20.90;2.83;;;18.80;69.00;;;;;;4826184;29;20427;-76
2022/07/08 05:35:42;;;;;;;12.23;1.50;;;18.80;69.20;;;;;;4826370;29;20050;-79
2022/07/08 05:38:07;;;;;;;10.23;2.25;;;18.80;69.60;;;;;;4824445;29;20115;-79
2022/07/08 05:40:33;;;;;;;13.88;1.85;;;18.90;69.60;;;;;;4824535;29;20058;-77
2022/07/08 05:42:59;;;;;;;13.15;1.70;;;18.90;69.50;;;;;;4824054;29;20058;-78
2022/07/08 05:45:24;;;;;;;12.88;1.90;;;18.90;69.40;;;;;;4824670;29;20058;-79
2022/07/08 05:47:51;;;;;;;9.88;1.55;;;19.00;69.40;;;;;;4825783;29;21663;-77
2022/07/08 05:50:17;;;;;;;14.27;2.30;;;19.00;69.40;;;;;;4825145;29;20138;-77
2022/07/08 05:52:43;;;;;;;11.63;1.40;;;19.00;69.40;;;;;;4840226;29;20133;-78
2022/07/08 05:55:09;;;;;;;9.55;1.67;;;19.00;69.40;;;;;;4825099;29;20058;-77
2022/07/08 05:57:34;;;;;;;6.25;1.50;;;19.10;69.40;;;;;;4824789;29;20054;-77
2022/07/08 06:00:00;;;;;;;10.77;1.38;;;19.10;69.30;;;;;;4825939;29;20102;-78
2022/07/08 06:02:26;;;;;;;15.85;1.77;;;19.10;69.40;;;;;;4825312;29;20050;-78
2022/07/08 06:04:51;;;;;;;7.85;1.63;;;19.10;69.40;;;;;;4840182;29;20053;-78
2022/07/08 06:35:47;;;;;;;11.23;1.80;;;19.20;69.70;;;;;;5138843;24;20070;-77
2022/07/08 06:38:13;;;;;;;10.40;1.88;;;19.20;69.80;;;;;;4839881;29;20539;-78
2022/07/08 06:40:38;;;;;;;8.50;1.58;;;19.20;69.70;;;;;;4827067;29;20074;-79
2022/07/08 06:43:04;;;;;;;7.22;2.05;;;19.20;69.60;;;;;;4827836;29;20082;-80
2022/07/08 06:45:32;;;;;;;8.13;1.58;;;19.20;69.50;;;;;;4827922;29;20042;-77
2022/07/08 06:47:59;;;;;;;9.20;1.85;;;19.20;69.50;;;;;;4812483;29;20057;-77
2022/07/08 06:50:24;;;;;;;7.60;2.15;;;19.20;69.80;;;;;;4827498;29;20133;-79
2022/07/08 06:52:52;;;;;;;8.10;1.67;;;19.20;69.80;;;;;;4827495;29;20480;-81
2022/07/08 06:55:18;;;;;;;8.93;1.95;;;19.20;69.70;;;;;;4827367;29;20062;-77
2022/07/08 06:57:44;;;;;;;8.20;1.60;;;19.20;69.40;;;;;;4828681;29;20046;-79
2022/07/08 07:00:11;;;;;;;8.32;2.58;;;19.20;69.40;;;;;;4828672;29;20062;-77
2022/07/08 07:02:36;;;;;;;7.78;1.50;;;19.20;69.70;;;;;;4812602;29;20069;-78
2022/07/08 07:05:05;;;;;;;7.50;1.85;;;19.20;69.90;;;;;;4827419;29;20046;-79
2022/07/08 07:07:33;;;;;;;6.22;1.58;;;19.20;69.90;;;;;;4827331;29;20050;-83
2022/07/08 07:09:59;;;;;;;11.10;2.30;;;19.20;69.90;;;;;;4842742;29;20050;-83
2022/07/08 07:12:25;;;;;;;6.43;1.80;;;19.20;69.80;;;;;;4827067;29;20050;-80
2022/07/08 07:14:51;;;;;;;5.50;1.50;;;19.20;69.70;;;;;;4812230;29;20108;-83
2022/07/08 07:17:19;;;;;;;5.57;1.55;;;19.30;69.70;;;;;;4826662;29;20133;-80
2022/07/08 07:19:46;;;;;;;7.85;1.73;;;19.30;69.70;;;;;;4812007;29;20477;-81
2022/07/08 07:22:13;;;;;;;4.45;1.25;;;19.30;69.60;;;;;;4811931;29;20473;-80
2022/07/08 07:24:39;;;;;;;5.80;1.30;;;19.30;69.50;;;;;;4826846;29;20047;-82
2022/07/08 07:27:05;;;;;;;4.18;1.08;;;19.30;69.50;;;;;;4811878;29;20516;-80
2022/07/08 07:29:30;;;;;;;6.10;1.55;;;19.40;69.40;;;;;;4827847;29;20098;-81
2022/07/08 07:31:56;;;;;;;4.88;1.20;;;19.40;69.40;;;;;;4826452;29;20058;-80
2022/07/08 07:34:22;;;;;;;5.28;1.10;;;19.40;69.40;;;;;;4810308;29;20046;-80
2022/07/08 07:36:48;;;;;;;6.97;1.70;;;19.40;69.30;;;;;;4810195;29;20141;-82
2022/07/08 07:39:14;;;;;;;4.47;1.30;;;19.40;69.20;;;;;;4841503;29;20050;-83
2022/07/08 07:41:39;;;;;;;4.38;1.13;;;19.40;69.20;;;;;;4826716;29;20542;-82
2022/07/08 07:44:06;;;;;;;3.63;1.35;;;19.40;69.10;;;;;;4811418;29;20178;-80
2022/07/08 07:46:32;;;;;;;5.03;1.40;;;19.40;69.10;;;;;;4826595;29;20045;-83
2022/07/08 07:48:58;;;;;;;4.20;1.52;;;19.40;69.10;;;;;;4826737;29;20434;-82
2022/07/08 07:51:25;;;;;;;7.90;1.02;;;19.50;69.20;;;;;;4811346;29;20211;-81
2022/07/08 07:53:51;;;;;;;6.40;1.50;;;19.50;69.10;;;;;;4826263;29;20035;-81
2022/07/08 07:56:16;;;;;;;6.22;1.55;;;19.50;69.10;;;;;;4811245;29;20061;-79
2022/07/08 07:58:42;;;;;;;3.85;0.85;;;19.50;69.10;;;;;;4827366;29;20038;-78
2022/07/08 08:01:08;;;;;;;5.43;0.98;;;19.50;68.90;;;;;;4826875;29;20050;-78
2022/07/08 08:03:33;;;;;;;5.30;0.93;;;19.50;69.00;;;;;;4827324;29;20046;-79
2022/07/08 08:06:00;;;;;;;7.82;1.45;;;19.50;69.00;;;;;;4827677;29;20065;-79
2022/07/08 08:08:27;;;;;;;7.28;1.30;;;19.50;69.10;;;;;;4827029;29;20046;-80
2022/07/08 08:10:53;;;;;;;4.95;1.00;;;19.50;69.10;;;;;;4827197;29;20389;-80
2022/07/08 08:13:19;;;;;;;4.63;1.08;;;19.50;69.20;;;;;;4825691;29;20370;-78
2022/07/08 08:15:45;;;;;;;7.32;1.42;;;19.50;69.20;;;;;;4826249;29;20050;-79
2022/07/08 08:18:11;;;;;;;5.22;0.90;;;19.50;69.20;;;;;;4827317;29;20062;-79
2022/07/08 08:20:37;;;;;;;3.67;1.48;;;19.50;69.20;;;;;;4827521;29;20187;-77
2022/07/08 08:23:03;;;;;;;4.25;1.15;;;19.50;69.10;;;;;;4826810;29;20472;-80
2022/07/08 08:25:29;;;;;;;4.95;1.00;;;19.50;69.20;;;;;;4826319;29;20447;-78
2022/07/08 08:27:56;;;;;;;3.13;1.08;;;19.50;69.10;;;;;;4827109;29;20064;-81
2022/07/08 08:30:22;;;;;;;6.35;1.27;;;19.50;69.10;;;;;;4826220;29;20366;-78
2022/07/08 08:32:48;;;;;;;2.67;0.80;;;19.60;69.20;;;;;;4810829;29;20054;-79
2022/07/08 08:35:14;;;;;;;4.55;1.10;;;19.50;69.00;;;;;;4827155;29;20065;-79
2022/07/08 08:37:40;;;;;;;3.00;0.90;;;19.60;69.10;;;;;;4827078;29;20488;-81
2022/07/08 08:40:09;;;;;;;3.13;0.93;;;19.60;69.10;;;;;;4827185;29;20061;-79
2022/07/08 08:42:36;;;;;;;5.68;1.42;;;19.60;69.10;;;;;;4826891;29;20050;-78
2022/07/08 08:45:05;;;;;;;4.75;1.38;;;19.60;69.10;;;;;;4825715;29;20053;-77
2022/07/08 08:47:32;;;;;;;3.80;0.80;;;19.60;68.40;;;;;;4826011;29;20083;-78
2022/07/08 08:50:53;;;;;;;3.38;0.95;;;19.60;68.20;;;;;;4826758;29;20054;-77
2022/07/08 08:52:51;;;;;;;3.97;1.13;;;19.60;68.30;;;;;;4825974;29;20500;-77
2022/07/08 08:55:50;;;;;;;3.05;0.90;;;19.60;68.20;;;;;;4826437;29;20386;-79
2022/07/08 08:58:16;;;;;;;7.43;1.48;;;19.60;67.70;;;;;;4825076;29;20071;-79
2022/07/08 09:00:43;;;;;;;3.50;1.00;;;19.60;68.00;;;;;;4825617;29;20046;-80
2022/07/08 09:03:09;;;;;;;5.18;1.15;;;19.60;68.20;;;;;;4826505;29;20054;-79
2022/07/08 09:05:34;;;;;;;8.40;1.40;;;19.60;68.30;;;;;;4810027;29;20069;-80
2022/07/08 09:08:03;;;;;;;4.50;0.70;;;19.60;68.40;;;;;;4825135;29;20129;-82
2022/07/08 09:10:29;;;;;;;4.30;1.10;;;19.60;68.50;;;;;;4826557;29;20477;-80
2022/07/08 09:13:11;;;;;;;6.55;1.30;;;19.60;68.50;;;;;;4825335;29;20042;-81
2022/07/08 09:15:40;;;;;;;5.05;1.27;;;19.60;68.00;;;;;;4825503;29;20099;-78
2022/07/08 09:18:25;;;;;;;3.72;1.30;;;19.70;67.70;;;;;;4810233;29;20050;-84
2022/07/08 09:20:53;;;;;;;4.53;0.88;;;19.60;67.70;;;;;;4810177;29;20050;-83
2022/07/08 09:23:28;;;;;;;5.13;0.95;;;19.60;68.00;;;;;;4822699;29;20046;-81
2022/07/08 09:26:05;;;;;;;4.50;0.95;;;19.60;68.30;;;;;;4826038;29;20126;-79
2022/07/08 09:28:45;;;;;;;5.22;1.08;;;19.70;68.40;;;;;;4825425;29;20336;-84
2022/07/08 09:31:15;;;;;;;4.72;1.40;;;19.70;68.50;;;;;;4825492;29;20046;-82
2022/07/08 09:33:42;;;;;;;6.57;0.75;;;19.70;68.60;;;;;;4848287;29;20110;-81
2022/07/08 09:36:09;;;;;;;4.47;0.88;;;19.80;68.60;;;;;;4825547;29;20058;-83
2022/07/08 09:38:37;;;;;;;2.42;0.70;;;19.70;68.70;;;;;;4825674;29;20129;-82
2022/07/08 09:41:09;;;;;;;2.95;0.70;;;19.80;68.80;;;;;;4826155;29;20062;-82
2022/07/08 09:43:44;;;;;;;6.30;1.27;;;19.80;68.60;;;;;;4809964;29;20058;-82
2022/07/08 09:46:10;;;;;;;4.50;1.02;;;19.80;68.80;;;;;;4810178;29;20062;-79
2022/07/08 09:48:36;;;;;;;2.65;0.98;;;19.80;68.70;;;;;;4825230;29;20058;-81
2022/07/08 09:51:10;;;;;;;3.05;0.63;;;19.80;68.70;;;;;;4825295;29;20370;-82
2022/07/08 09:53:39;;;;;;;;;;;19.80;68.80;;;;;;4810113;29;20050;-82
2022/07/08 09:56:06;;;;;;;3.22;0.93;;;19.80;68.90;;;;;;4826044;29;19932;-81
2022/07/08 09:58:33;;;;;;;4.38;0.85;;;19.80;68.70;;;;;;4840031;29;20121;-80
2022/07/08 10:01:00;;;;;;;5.35;1.42;;;19.80;68.80;;;;;;4826320;29;20160;-81
2022/07/08 10:03:27;;;;;;;3.80;0.82;;;19.90;68.80;;;;;;4824649;29;20143;-82
2022/07/08 10:05:54;;;;;;;2.13;0.60;;;19.90;68.80;;;;;;4809879;29;20133;-83
2022/07/08 10:08:21;;;;;;;4.75;1.23;;;19.90;68.80;;;;;;4825206;29;20046;-82
2022/07/08 10:10:48;;;;;;;3.17;0.90;;;19.90;68.80;;;;;;4825968;29;20202;-81
2022/07/08 10:13:15;;;;;;;3.13;0.80;;;19.90;68.80;;;;;;4809280;29;20134;-82
2022/07/08 10:15:43;;;;;;;9.45;1.20;;;19.90;68.80;;;;;;4842067;29;20050;-82
2022/07/08 10:18:14;;;;;;;2.58;0.75;;;19.90;68.80;;;;;;4829908;29;20054;-81
2022/07/08 10:20:46;;;;;;;5.45;1.33;;;19.90;68.80;;;;;;4842930;29;20062;-83
2022/07/08 10:23:19;;;;;;;3.53;0.90;;;19.90;68.90;;;;;;4827798;29;20065;-82
2022/07/08 10:25:46;;;;;;;4.13;1.45;;;19.90;69.00;;;;;;4813204;29;20054;-82
2022/07/08 10:28:13;;;;;;;3.83;0.93;;;20.00;69.00;;;;;;4828986;29;20059;-84
2022/07/08 10:30:51;;;;;;;3.10;1.02;;;19.90;68.90;;;;;;4813195;29;20136;-84
2022/07/08 10:33:19;;;;;;;4.07;1.15;;;19.90;69.00;;;;;;4811527;29;20486;-83
2022/07/08 10:36:04;;;;;;;3.22;0.82;;;20.00;69.10;;;;;;4811963;29;20058;-82
2022/07/08 10:38:35;;;;;;;2.97;0.90;;;20.00;69.00;;;;;;4827357;29;20055;-81
2022/07/08 10:41:04;;;;;;;3.72;1.23;;;20.00;69.60;;;;;;4812604;29;20077;-82
2022/07/08 10:43:30;;;;;;;3.00;0.90;;;20.00;69.00;;;;;;4812919;29;20145;-83
2022/07/08 10:46:13;;;;;;;5.93;0.95;;;20.00;69.10;;;;;;4827654;29;20046;-83
2022/07/08 10:48:52;;;;;;;3.78;1.38;;;20.00;69.10;;;;;;4827860;29;20142;-84
2022/07/08 10:51:24;;;;;;;1.95;1.00;;;20.00;69.10;;;;;;4827708;29;20054;-85
2022/07/08 10:53:59;;;;;;;3.08;1.00;;;20.00;69.10;;;;;;4810241;29;20051;-83
2022/07/08 10:56:49;;;;;;;4.95;0.95;;;20.00;69.10;;;;;;4810707;29;20143;-83
2022/07/08 10:59:19;;;;;;;3.35;0.90;;;20.00;69.10;;;;;;4811743;29;20078;-84
2022/07/08 11:01:59;;;;;;;1.80;0.70;;;20.00;69.10;;;;;;4797154;29;20042;-80
2022/07/08 11:04:33;;;;;;;4.35;0.82;;;20.00;69.10;;;;;;4842730;29;20072;-75
2022/07/08 11:07:14;;;;;;;3.58;0.90;;;20.00;69.00;;;;;;4841999;29;20066;-79
2022/07/08 11:09:57;;;;;;;2.60;0.80;;;20.10;68.90;;;;;;4809358;29;20130;-83
2022/07/08 11:12:30;;;;;;;6.88;1.00;;;20.10;69.10;;;;;;4814922;29;20445;-79
2022/07/08 11:14:57;;;;;;;2.97;0.80;;;20.10;69.60;;;;;;4826724;29;20129;-78
2022/07/08 11:17:27;;;;;;;2.08;0.85;;;20.10;69.80;;;;;;4812035;29;20517;-84
2022/07/08 11:19:55;;;;;;;5.60;1.30;;;20.10;69.80;;;;;;4827283;29;20493;-84
2022/07/08 11:22:23;;;;;;;3.58;0.93;;;20.10;70.00;;;;;;4826503;29;20046;-81
2022/07/08 11:24:53;;;;;;;3.85;1.45;;;20.10;70.00;;;;;;4811552;29;20657;-81
2022/07/08 11:27:31;;;;;;;4.85;1.17;;;20.20;70.00;;;;;;4812074;29;20058;-85
2022/07/08 11:29:57;;;;;;;3.92;1.15;;;20.10;70.00;;;;;;4827861;29;20046;-83
2022/07/08 11:32:25;;;;;;;1.65;0.85;;;20.10;69.90;;;;;;4811317;29;20057;-82
2022/07/08 11:34:52;;;;;;;4.82;1.25;;;20.20;70.00;;;;;;4825725;29;20053;-80
2022/07/08 11:37:21;;;;;;;3.78;1.13;;;20.20;70.00;;;;;;4825911;29;20058;-83
2022/07/08 11:39:47;;;;;;;5.88;1.02;;;20.20;69.90;;;;;;4811459;29;20458;-82
2022/07/08 11:42:14;;;;;;;12.90;1.60;;;20.20;69.90;;;;;;4811848;29;20084;-84
2022/07/08 11:44:40;;;;;;;9.45;1.73;;;20.20;69.90;;;;;;4827701;29;20046;-80
2022/07/08 11:47:06;;;;;;;12.52;2.03;;;20.30;70.10;;;;;;4812049;29;20049;-82
2022/07/08 11:49:34;;;;;;;17.58;2.20;;;20.30;70.30;;;;;;4826928;29;20045;-76
2022/07/08 11:52:00;;;;;;;7.38;2.75;;;20.30;70.80;;;;;;4825976;29;20047;-78
2022/07/08 11:54:28;;;;;;;10.10;2.72;;;20.40;71.70;;;;;;4826426;29;20054;-69
2022/07/08 11:56:59;;;;;;;8.73;2.38;;;20.50;71.80;;;;;;4827423;29;20426;-70
2022/07/08 11:59:29;;;;;;;6.13;2.42;;;20.60;71.20;;;;;;4827516;29;20481;-71
2022/07/08 12:01:58;;;;;;;7.00;3.03;;;20.60;71.40;;;;;;4841328;29;20466;-77
2022/07/08 12:04:25;;;;;;;6.72;2.47;;;20.60;71.40;;;;;;4827526;29;20042;-76
2022/07/08 12:06:55;;;;;;;10.13;2.55;;;20.70;71.10;;;;;;4827930;29;20057;-83
2022/07/08 12:09:29;;;;;;;10.93;2.90;;;20.50;71.00;;;;;;4809725;29;20061;-79
2022/07/08 12:12:05;;;;;;;7.10;2.10;;;20.60;71.20;;;;;;4827433;29;20113;-88
2022/07/08 12:14:35;;;;;;;6.22;2.22;;;20.50;71.30;;;;;;4836974;29;20052;-83
2022/07/08 12:17:26;;;;;;;9.50;2.53;;;20.50;71.30;;;;;;4825982;29;20381;-82
2022/07/08 12:19:53;;;;;;;6.97;1.67;;;20.50;71.50;;;;;;4826139;29;20045;-81
2022/07/08 12:23:20;;;;;;;8.23;2.55;;;20.50;71.40;;;;;;4827094;29;20328;-88
2022/07/08 12:25:50;;;;;;;12.60;3.10;;;20.50;71.50;;;;;;4841356;29;20069;-77
2022/07/08 12:28:23;;;;;;;9.95;2.70;;;20.50;71.50;;;;;;4826998;29;20101;-79
2022/07/08 12:30:49;;;;;;;8.15;2.28;;;20.60;71.60;;;;;;4826827;29;20045;-79
2022/07/08 12:33:27;;;;;;;5.90;1.77;;;20.50;71.40;;;;;;4827144;29;20046;-77
2022/07/08 12:35:53;;;;;;;7.15;1.73;;;20.60;71.60;;;;;;4832582;29;20064;-75
2022/07/08 12:38:24;;;;;;;11.07;2.35;;;20.70;71.70;;;;;;4844406;29;20066;-82
2022/07/08 12:40:52;;;;;;;16.00;2.90;;;20.60;71.60;;;;;;4828703;29;20461;-82
2022/07/08 12:43:18;;;;;;;9.18;2.45;;;20.70;71.60;;;;;;4824114;29;20083;-82
2022/07/08 12:45:45;;;;;;;13.30;3.30;;;20.70;71.60;;;;;;4810506;29;20413;-83
2022/07/08 12:48:10;;;;;;;10.35;2.80;;;20.70;71.80;;;;;;4810960;29;20046;-82
2022/07/08 12:50:36;;;;;;;8.10;2.38;;;20.70;71.80;;;;;;4825455;29;20039;-85
2022/07/08 12:53:03;;;;;;;9.43;2.28;;;20.70;71.70;;;;;;4809779;29;20051;-79
2022/07/08 12:55:31;;;;;;;10.38;2.80;;;20.70;71.70;;;;;;4826879;29;20129;-82
2022/07/08 12:57:57;;;;;;;10.43;2.78;;;20.70;71.80;;;;;;4825722;29;20042;-77
2022/07/08 13:00:23;;;;;;;6.95;2.10;;;20.70;71.90;;;;;;4826662;29;20128;-80
2022/07/08 13:02:49;;;;;;;11.20;2.92;;;20.60;71.90;;;;;;4810066;29;20046;-81
2022/07/08 13:05:18;;;;;;;11.52;2.20;;;20.70;72.20;;;;;;4825831;29;20043;-78
2022/07/08 13:07:47;;;;;;;10.75;2.60;;;20.70;72.20;;;;;;4826578;29;20042;-79
2022/07/08 13:10:13;;;;;;;10.15;3.08;;;20.70;72.10;;;;;;4820860;29;20049;-80
2022/07/08 13:12:38;;;;;;;8.45;2.25;;;20.80;72.20;;;;;;4810354;29;20129;-79
2022/07/08 13:15:05;;;;;;;8.93;2.40;;;20.90;72.30;;;;;;4808973;29;20178;-76
2022/07/08 13:17:30;;;;;;;9.68;2.42;;;20.90;72.60;;;;;;4825257;29;20061;-77
2022/07/08 13:19:56;;;;;;;13.23;2.65;;;20.90;71.90;;;;;;4825948;29;20454;-81
2022/07/08 13:22:25;;;;;;;11.98;2.35;;;20.90;72.00;;;;;;4825349;29;20133;-83
2022/07/08 13:24:51;;;;;;;7.25;2.42;;;20.90;72.00;;;;;;4809852;29;20049;-80
2022/07/08 13:27:16;;;;;;;7.70;2.47;;;20.90;71.90;;;;;;4826366;29;20038;-80
2022/07/08 13:29:42;;;;;;;10.77;1.88;;;20.90;71.80;;;;;;4824680;29;20042;-77
2022/07/08 13:32:08;;;;;;;15.45;2.50;;;20.90;71.80;;;;;;4825925;29;20355;-80
2022/07/08 13:34:33;;;;;;;8.38;2.15;;;20.90;71.90;;;;;;4839823;29;20102;-81
2022/07/08 13:36:59;;;;;;;6.47;2.00;;;20.90;71.90;;;;;;4824080;29;20054;-81
2022/07/08 13:39:25;;;;;;;8.88;2.50;;;21.00;71.90;;;;;;4809536;29;20050;-79
2022/07/08 13:41:51;;;;;;;7.75;2.00;;;21.00;71.90;;;;;;4826112;29;20043;-78
2022/07/08 13:44:16;;;;;;;6.35;2.00;;;20.90;72.00;;;;;;4826237;29;20042;-77
2022/07/08 13:46:42;;;;;;;8.68;2.35;;;20.90;72.10;;;;;;4825225;29;20358;-78
2022/07/08 13:49:08;;;;;;;8.05;2.05;;;20.80;72.10;;;;;;4826758;29;20058;-78
2022/07/08 13:51:34;;;;;;;6.68;2.10;;;20.80;72.10;;;;;;4829752;29;20453;-78
2022/07/08 13:53:59;;;;;;;9.85;2.42;;;20.80;72.10;;;;;;4828444;29;20093;-79
2022/07/08 13:56:25;;;;;;;7.93;2.28;;;20.80;72.20;;;;;;4829658;29;20046;-77
2022/07/08 13:58:51;;;;;;;6.72;2.03;;;20.80;72.10;;;;;;4829357;29;20054;-79
2022/07/08 14:01:20;;;;;;;9.57;2.20;;;20.80;72.10;;;;;;4829218;29;20433;-77
2022/07/08 14:03:46;;;;;;;6.18;2.05;;;20.80;72.10;;;;;;4829465;29;20130;-79
2022/07/08 15:42:24;;;;;;;7.97;2.05;;;21.00;73.60;;;;;;5206072;24;20339;-77
2022/07/08 15:44:49;;;;;;;7.20;2.05;;;21.00;73.70;;;;;;4825035;29;20099;-78
2022/07/08 15:47:17;;;;;;;8.55;2.25;;;21.00;73.80;;;;;;4827537;29;20099;-77
2022/07/08 15:49:43;;;;;;;6.00;1.40;;;21.00;73.70;;;;;;4809507;29;20035;-75
2022/07/08 15:52:09;;;;;;;6.78;1.73;;;21.00;73.70;;;;;;4809459;29;20054;-74
2022/07/08 15:54:42;;;;;;;7.18;2.33;;;21.00;73.70;;;;;;4820430;29;20046;-78
2022/07/08 15:57:08;;;;;;;7.95;1.73;;;21.00;73.70;;;;;;4827274;29;20073;-76
2022/07/08 15:59:34;;;;;;;5.53;1.65;;;21.00;73.70;;;;;;4827008;29;20074;-76
2022/07/08 16:02:00;;;;;;;5.63;1.77;;;21.00;73.70;;;;;;4826948;29;20385;-78
2022/07/08 16:04:27;;;;;;;5.90;1.92;;;21.00;73.60;;;;;;4826809;29;20129;-77
2022/07/08 16:06:53;;;;;;;9.65;1.90;;;21.10;73.70;;;;;;4826971;29;20046;-77
2022/07/08 16:09:19;;;;;;;4.20;1.42;;;21.00;73.60;;;;;;4827764;29;20054;-78
2022/07/08 16:11:44;;;;;;;5.95;1.50;;;21.10;73.70;;;;;;4826924;29;20435;-77
2022/07/08 16:14:10;;;;;;;6.80;2.00;;;21.10;73.80;;;;;;4825877;29;20057;-78
2022/07/08 16:16:36;;;;;;;4.00;1.23;;;21.10;73.80;;;;;;4825274;29;20070;-78
2022/07/08 16:19:02;;;;;;;9.05;2.13;;;21.10;73.80;;;;;;4826433;29;20046;-77
2022/07/08 16:21:28;;;;;;;10.52;2.10;;;21.20;73.80;;;;;;4827003;29;20137;-78
2022/07/08 16:23:54;;;;;;;10.82;2.83;;;21.20;74.00;;;;;;4827255;29;20099;-78
2022/07/08 16:26:20;;;;;;;8.85;2.20;;;21.20;74.10;;;;;;4825683;29;20042;-78
2022/07/08 16:28:46;;;;;;;14.25;3.28;;;21.20;74.40;;;;;;4826728;29;20513;-78
2022/07/08 16:31:11;;;;;;;6.70;1.85;;;21.20;74.80;;;;;;4826900;29;20058;-78
2022/07/08 16:33:37;;;;;;;8.95;2.75;;;21.20;75.00;;;;;;4827112;29;20137;-78
2022/07/08 16:36:07;;;;;;;8.00;2.33;;;21.30;75.10;;;;;;4826664;29;20500;-77
2022/07/08 16:38:35;;;;;;;5.78;1.70;;;21.30;75.40;;;;;;4828401;29;20530;-77
2022/07/08 16:41:00;;;;;;;7.82;1.73;;;21.40;75.40;;;;;;4839094;29;20046;-78
2022/07/08 16:43:26;;;;;;;6.57;1.80;;;21.40;75.00;;;;;;4826358;29;20126;-79
2022/07/08 17:50:33;;;;;;;6.47;1.75;;;21.40;73.20;;;;;;5264134;24;20059;-78
2022/07/08 17:52:59;;;;;;;5.30;1.40;;;21.40;73.50;;;;;;4824298;29;20058;-81
2022/07/08 17:55:29;;;;;;;4.45;1.45;;;21.40;73.10;;;;;;4825096;29;20058;-80
2022/07/08 17:57:57;;;;;;;4.85;1.40;;;21.40;72.80;;;;;;4825713;29;20050;-77
2022/07/08 18:00:23;;;;;;;5.88;1.40;;;21.40;72.60;;;;;;4825798;29;20386;-85
2022/07/08 18:02:49;;;;;;;5.45;1.80;;;21.40;72.50;;;;;;4840069;29;20057;-72
2022/07/08 18:05:14;;;;;;;4.93;1.20;;;21.40;72.30;;;;;;4825907;29;20442;-77
2022/07/08 18:07:40;;;;;;;7.03;2.22;;;21.40;72.50;;;;;;4826120;29;20050;-75
2022/07/08 18:10:06;;;;;;;6.53;2.00;;;21.40;72.50;;;;;;4826627;29;20053;-78
2022/07/08 18:12:32;;;;;;;5.97;2.00;;;21.40;72.10;;;;;;4825960;29;20086;-78
2022/07/08 18:14:58;;;;;;;6.88;2.13;;;21.40;72.10;;;;;;4825257;29;20074;-78
2022/07/08 18:17:24;;;;;;;6.80;1.73;;;21.40;71.80;;;;;;4825659;29;20061;-77
2022/07/08 18:19:49;;;;;;;5.82;1.77;;;21.40;71.90;;;;;;4825057;29;20042;-77
2022/07/08 18:22:15;;;;;;;8.57;2.17;;;21.30;72.10;;;;;;4825846;29;20087;-79
2022/07/08 18:24:41;;;;;;;7.18;1.98;;;21.30;72.10;;;;;;4825804;29;20065;-79
2022/07/08 18:27:06;;;;;;;6.88;1.90;;;21.30;72.00;;;;;;4826128;29;20050;-79
2022/07/08 18:29:32;;;;;;;8.38;2.20;;;21.30;72.10;;;;;;4840630;29;20451;-80
2022/07/08 18:31:58;;;;;;;7.60;2.55;;;21.30;72.40;;;;;;4840134;29;20126;-78
2022/07/08 18:34:25;;;;;;;5.85;1.88;;;21.20;72.30;;;;;;4825568;29;20106;-78
2022/07/08 18:36:51;;;;;;;7.78;1.90;;;21.20;72.40;;;;;;4842212;29;20061;-80
2022/07/08 18:39:16;;;;;;;4.60;1.77;;;21.10;72.40;;;;;;4829106;29;20054;-80
2022/07/08 18:41:42;;;;;;;5.85;1.73;;;21.10;72.30;;;;;;4843123;29;20474;-80
2022/07/08 18:44:10;;;;;;;7.97;2.13;;;21.10;72.30;;;;;;4827795;29;20089;-79
2022/07/08 18:46:35;;;;;;;6.63;1.83;;;21.00;72.20;;;;;;4829135;29;20042;-79
2022/07/08 18:49:01;;;;;;;7.30;2.20;;;21.00;72.40;;;;;;4827706;29;20386;-79
2022/07/08 18:51:27;;;;;;;6.72;2.00;;;21.00;72.50;;;;;;4834882;29;20057;-80
2022/07/08 18:53:52;;;;;;;8.15;1.85;;;21.00;72.50;;;;;;4865544;29;20114;-79
2022/07/08 18:56:18;;;;;;;9.15;2.08;;;20.90;72.50;;;;;;4865583;29;20501;-81
2022/07/08 18:58:44;;;;;;;8.80;2.08;;;20.90;72.60;;;;;;4848935;29;20061;-79
2022/07/08 19:01:09;;;;;;;9.52;1.80;;;20.90;72.80;;;;;;4865524;29;20061;-79
2022/07/08 19:03:35;;;;;;;9.63;2.03;;;20.90;72.90;;;;;;4865252;29;20053;-79
2022/07/08 19:06:01;;;;;;;7.18;1.80;;;20.80;72.80;;;;;;4865864;29;20123;-80
2022/07/08 19:08:27;;;;;;;6.65;1.92;;;20.80;72.80;;;;;;4865517;29;20430;-79
2022/07/08 19:10:59;;;;;;;7.57;1.98;;;20.80;72.80;;;;;;4848414;29;20056;-80
2022/07/08 19:13:25;;;;;;;7.68;2.15;;;20.80;72.90;;;;;;4864798;29;20050;-81
2022/07/08 19:15:51;;;;;;;4.68;1.55;;;20.80;72.70;;;;;;4849128;29;20441;-81
2022/07/08 19:18:16;;;;;;;7.60;2.35;;;20.70;72.60;;;;;;4865607;29;20429;-80
2022/07/08 19:20:46;;;;;;;7.55;2.50;;;20.70;72.60;;;;;;4864853;29;20469;-79
2022/07/08 19:23:13;;;;;;;7.38;2.05;;;20.70;72.70;;;;;;4865230;29;20053;-79
2022/07/08 19:25:39;;;;;;;7.72;2.10;;;20.70;72.80;;;;;;4833420;29;20052;-79
2022/07/08 19:28:05;;;;;;;5.18;1.60;;;20.70;72.80;;;;;;4864345;29;20068;-80
2022/07/08 19:30:31;;;;;;;6.60;1.83;;;20.70;72.80;;;;;;4863966;29;20465;-79
2022/07/08 19:32:56;;;;;;;9.43;2.53;;;20.70;72.80;;;;;;4864469;29;20100;-80
2022/07/08 19:35:22;;;;;;;6.38;2.63;;;20.60;72.90;;;;;;4864977;29;20052;-80
2022/07/08 19:37:49;;;;;;;8.40;2.38;;;20.60;73.10;;;;;;4865284;29;20053;-80
2022/07/08 19:40:15;;;;;;;9.30;2.53;;;20.60;73.10;;;;;;4847834;29;20100;-79
2022/07/08 19:42:41;;;;;;;9.52;2.10;;;20.60;73.20;;;;;;4848219;29;20413;-80
2022/07/08 19:45:07;;;;;;;8.65;2.65;;;20.60;73.30;;;;;;4863912;29;20045;-79
2022/07/08 19:47:33;;;;;;;8.30;2.10;;;20.50;73.30;;;;;;4863535;29;20085;-79
2022/07/08 19:50:00;;;;;;;3.83;2.15;;;20.50;73.30;;;;;;4863426;29;20084;-80
2022/07/08 19:52:25;;;;;;;9.82;2.47;;;20.50;73.40;;;;;;4847849;29;20530;-79
2022/07/08 19:54:51;;;;;;;5.00;2.20;;;20.50;73.60;;;;;;4833143;29;20149;-80
2022/07/08 19:57:17;;;;;;;7.80;2.03;;;20.40;73.60;;;;;;4864207;29;20385;-79
2022/07/08 19:59:43;;;;;;;9.68;2.72;;;20.40;73.60;;;;;;4847626;29;20058;-80
2022/07/08 20:02:09;;;;;;;7.45;2.00;;;20.40;73.60;;;;;;4832924;29;20050;-80
2022/07/08 20:04:35;;;;;;;8.38;1.70;;;20.40;73.70;;;;;;4848338;29;20056;-80
2022/07/08 20:07:01;;;;;;;7.13;2.25;;;20.40;73.80;;;;;;4864380;29;20045;-79
2022/07/08 20:09:28;;;;;;;8.02;1.77;;;20.30;73.80;;;;;;4864207;29;20053;-77
2022/07/08 20:11:54;;;;;;;8.10;2.55;;;20.30;73.80;;;;;;4847475;29;20038;-73
2022/07/08 20:14:19;;;;;;;7.53;2.47;;;20.30;74.00;;;;;;4863895;29;20338;-78
2022/07/08 20:16:45;;;;;;;6.95;2.28;;;20.20;74.20;;;;;;4863709;29;20052;-78